PWSweather.com
Personal Weather Stations
Station Observations
HVALPSUND
Hvalpsund, FarsoeDK 9640

HvalpsundFarsoeDK 9640

Lat: 56.705311, Lon: 9.203638

Elevation: 5

Station Type: Vantage Pro2

http://hvalpsundvejr.dk

Latest ConditionsUpdated 1:13:00 AM GMT+01:01 Sunday, May 26, 2019
Currently Today's Max Today's Min Today's Average
Temperature 49.2°F9.6°C 50.3°F10.2°C 49.1°F9.5°C 49.7°F9.8°C
Dew Point 46.1°F7.8°C 46.9°F8.3°C 45.6°F7.6°C 46.4°F8.0°C
Winds 16.0 mph W25.7 kmh W 20.0 mph -32.2 kmh - - 14.4 mph 23.2 kmh
Wind Gusts 20.0 mph32.2 kmh 24.0 mph38.6 kmh - -
Humidity 89% 90% 86% 88%
Pressure 29.75 in1007.5 mb 29.78 in1008.5 mb 29.75 in1007.5 mb -
Precipitation - 0.03 in0.8 mm - -
Hour Temp Dew Point Humidity Winds Wind Gusts Pressure Precip Precip Rate Daily Precip Total
01:13 AM 49.2°F9.6°C 46.1°F7.8°C 89% 16.0 mph W25.7 kmh W 20.0 mph32.2 kmh 29.75 in1007.5 mb 0.02 in0.5 mm 0.00 in0.0 mm 0.03 in0.8 mm
01:12 AM 49.2°F9.6°C 46.1°F7.8°C 89% 18.0 mph W29.0 kmh W 20.0 mph32.2 kmh 29.76 in1007.8 mb 0.02 in0.5 mm 0.00 in0.0 mm 0.03 in0.8 mm
01:11 AM 49.2°F9.6°C 46.1°F7.8°C 89% 17.0 mph W27.4 kmh W 21.0 mph33.8 kmh 29.76 in1007.8 mb 0.02 in0.5 mm 0.00 in0.0 mm 0.03 in0.8 mm
01:10 AM 49.2°F9.6°C 46.1°F7.8°C 89% 17.0 mph W27.4 kmh W 22.0 mph35.4 kmh 29.76 in1007.8 mb 0.02 in0.5 mm 0.00 in0.0 mm 0.02 in0.5 mm
01:09 AM 49.1°F9.5°C 46.0°F7.8°C 89% 19.0 mph W30.6 kmh W 24.0 mph38.6 kmh 29.76 in1007.8 mb 0.02 in0.5 mm 0.00 in0.0 mm 0.02 in0.5 mm
01:08 AM 49.3°F9.6°C 46.2°F7.9°C 89% 17.0 mph W27.4 kmh W 19.0 mph30.6 kmh 29.76 in1007.8 mb 0.02 in0.5 mm 0.00 in0.0 mm 0.02 in0.5 mm
01:07 AM 49.2°F9.6°C 46.4°F8.0°C 90% 16.0 mph W25.7 kmh W 20.0 mph32.2 kmh 29.76 in1007.8 mb 0.02 in0.5 mm 0.00 in0.0 mm 0.02 in0.5 mm
01:06 AM 49.2°F9.6°C 46.1°F7.8°C 89% 16.0 mph W25.7 kmh W 21.0 mph33.8 kmh 29.76 in1007.8 mb 0.02 in0.5 mm 0.00 in0.0 mm 0.02 in0.5 mm
01:05 AM 49.2°F9.6°C 46.1°F7.8°C 89% 18.0 mph W29.0 kmh W 22.0 mph35.4 kmh 29.76 in1007.8 mb 0.02 in0.5 mm 0.00 in0.0 mm 0.02 in0.5 mm
01:04 AM 49.4°F9.7°C 46.6°F8.1°C 90% 17.0 mph W27.4 kmh W 23.0 mph37.0 kmh 29.76 in1007.8 mb 0.02 in0.5 mm 0.00 in0.0 mm 0.02 in0.5 mm
01:03 AM 49.4°F9.7°C 46.6°F8.1°C 90% 17.0 mph W27.4 kmh W 19.0 mph30.6 kmh 29.76 in1007.8 mb 0.02 in0.5 mm 0.00 in0.0 mm 0.02 in0.5 mm
01:02 AM 49.4°F9.7°C 46.6°F8.1°C 90% 16.0 mph W25.7 kmh W 18.0 mph29.0 kmh 29.76 in1007.8 mb 0.02 in0.5 mm 0.00 in0.0 mm 0.02 in0.5 mm
01:01 AM 49.5°F9.7°C 46.7°F8.2°C 90% 16.0 mph WSW25.7 kmh WSW 20.0 mph32.2 kmh 29.76 in1007.8 mb 0.02 in0.5 mm 0.00 in0.0 mm 0.02 in0.5 mm
01:00 AM 49.5°F9.7°C 46.7°F8.2°C 90% 14.0 mph WSW22.5 kmh WSW 17.0 mph27.4 kmh 29.76 in1007.8 mb 0.02 in0.5 mm 0.00 in0.0 mm 0.02 in0.5 mm
12:59 AM 49.5°F9.7°C 46.4°F8.0°C 89% 13.0 mph WSW20.9 kmh WSW 16.0 mph25.7 kmh 29.76 in1007.8 mb 0.02 in0.5 mm 0.00 in0.0 mm 0.02 in0.5 mm
12:58 AM 49.5°F9.7°C 46.7°F8.2°C 90% 13.0 mph W20.9 kmh W 17.0 mph27.4 kmh 29.76 in1007.8 mb 0.02 in0.5 mm 0.00 in0.0 mm 0.02 in0.5 mm
12:57 AM 49.6°F9.8°C 46.8°F8.2°C 90% 13.0 mph W20.9 kmh W 14.0 mph22.5 kmh 29.76 in1007.8 mb 0.02 in0.5 mm 0.00 in0.0 mm 0.02 in0.5 mm
12:56 AM 49.4°F9.7°C 46.6°F8.1°C 90% 10.0 mph W16.1 kmh W 12.0 mph19.3 kmh 29.76 in1007.8 mb 0.02 in0.5 mm 0.00 in0.0 mm 0.02 in0.5 mm
12:55 AM 49.3°F9.6°C 46.2°F7.9°C 89% 13.0 mph W20.9 kmh W 15.0 mph24.1 kmh 29.76 in1007.8 mb 0.02 in0.5 mm 0.00 in0.0 mm 0.02 in0.5 mm
12:54 AM 49.3°F9.6°C 46.2°F7.9°C 89% 13.0 mph W20.9 kmh W 15.0 mph24.1 kmh 29.76 in1007.8 mb 0.02 in0.5 mm 0.00 in0.0 mm 0.02 in0.5 mm
12:53 AM 49.3°F9.6°C 46.2°F7.9°C 89% 14.0 mph W22.5 kmh W 16.0 mph25.7 kmh 29.76 in1007.8 mb 0.02 in0.5 mm 0.00 in0.0 mm 0.02 in0.5 mm
12:52 AM 49.3°F9.6°C 46.2°F7.9°C 89% 16.0 mph W25.7 kmh W 18.0 mph29.0 kmh 29.76 in1007.8 mb 0.02 in0.5 mm 0.00 in0.0 mm 0.02 in0.5 mm
12:51 AM 49.3°F9.6°C 46.2°F7.9°C 89% 15.0 mph W24.1 kmh W 18.0 mph29.0 kmh 29.76 in1007.8 mb 0.02 in0.5 mm 0.00 in0.0 mm 0.02 in0.5 mm
12:50 AM 49.4°F9.7°C 46.3°F7.9°C 89% 16.0 mph W25.7 kmh W 20.0 mph32.2 kmh 29.76 in1007.8 mb 0.02 in0.5 mm 0.00 in0.0 mm 0.02 in0.5 mm
12:49 AM 49.6°F9.8°C 46.5°F8.1°C 89% 15.0 mph W24.1 kmh W 18.0 mph29.0 kmh 29.76 in1007.8 mb 0.02 in0.5 mm 0.00 in0.0 mm 0.02 in0.5 mm
12:48 AM 49.6°F9.8°C 46.2°F7.9°C 88% 15.0 mph W24.1 kmh W 18.0 mph29.0 kmh 29.76 in1007.8 mb 0.02 in0.5 mm 0.00 in0.0 mm 0.02 in0.5 mm
12:47 AM 49.6°F9.8°C 46.2°F7.9°C 88% 15.0 mph W24.1 kmh W 17.0 mph27.4 kmh 29.76 in1007.8 mb 0.02 in0.5 mm 0.00 in0.0 mm 0.02 in0.5 mm
12:46 AM 49.8°F9.9°C 46.7°F8.2°C 89% 14.0 mph W22.5 kmh W 18.0 mph29.0 kmh 29.76 in1007.8 mb 0.02 in0.5 mm 0.00 in0.0 mm 0.02 in0.5 mm
12:45 AM 49.7°F9.8°C 46.3°F7.9°C 88% 15.0 mph W24.1 kmh W 19.0 mph30.6 kmh 29.77 in1008.1 mb 0.02 in0.5 mm 0.00 in0.0 mm 0.02 in0.5 mm
12:44 AM 49.9°F9.9°C 46.8°F8.2°C 89% 13.0 mph W20.9 kmh W 20.0 mph32.2 kmh 29.77 in1008.1 mb 0.02 in0.5 mm 0.00 in0.0 mm 0.02 in0.5 mm
12:43 AM 49.7°F9.8°C 46.3°F7.9°C 88% 14.0 mph W22.5 kmh W 16.0 mph25.7 kmh 29.77 in1008.1 mb 0.02 in0.5 mm 0.00 in0.0 mm 0.02 in0.5 mm
12:42 AM 49.6°F9.8°C 46.2°F7.9°C 88% 13.0 mph WSW20.9 kmh WSW 16.0 mph25.7 kmh 29.77 in1008.1 mb 0.02 in0.5 mm 0.00 in0.0 mm 0.02 in0.5 mm
12:41 AM 49.6°F9.8°C 46.2°F7.9°C 88% 16.0 mph WSW25.7 kmh WSW 21.0 mph33.8 kmh 29.77 in1008.1 mb 0.02 in0.5 mm 0.00 in0.0 mm 0.02 in0.5 mm
12:40 AM 49.6°F9.8°C 46.2°F7.9°C 88% 16.0 mph W25.7 kmh W 20.0 mph32.2 kmh 29.77 in1008.1 mb 0.02 in0.5 mm 0.00 in0.0 mm 0.02 in0.5 mm
12:39 AM 49.7°F9.8°C 46.3°F7.9°C 88% 15.0 mph W24.1 kmh W 18.0 mph29.0 kmh 29.77 in1008.1 mb 0.02 in0.5 mm 0.00 in0.0 mm 0.02 in0.5 mm
12:38 AM 49.7°F9.8°C 46.3°F7.9°C 88% 17.0 mph W27.4 kmh W 22.0 mph35.4 kmh 29.77 in1008.1 mb 0.02 in0.5 mm 0.00 in0.0 mm 0.02 in0.5 mm
12:37 AM 50.0°F10.0°C 46.6°F8.1°C 88% 16.0 mph W25.7 kmh W 21.0 mph33.8 kmh 29.77 in1008.1 mb 0.02 in0.5 mm 0.00 in0.0 mm 0.02 in0.5 mm
12:36 AM 50.2°F10.1°C 46.8°F8.2°C 88% 13.0 mph W20.9 kmh W 16.0 mph25.7 kmh 29.77 in1008.1 mb 0.02 in0.5 mm 0.00 in0.0 mm 0.02 in0.5 mm
12:35 AM 50.2°F10.1°C 46.8°F8.2°C 88% 11.0 mph W17.7 kmh W 15.0 mph24.1 kmh 29.77 in1008.1 mb 0.02 in0.5 mm 0.00 in0.0 mm 0.02 in0.5 mm
12:34 AM 50.1°F10.1°C 46.7°F8.2°C 88% 12.0 mph W19.3 kmh W 15.0 mph24.1 kmh 29.77 in1008.1 mb 0.02 in0.5 mm 0.00 in0.0 mm 0.02 in0.5 mm
12:33 AM 50.0°F10.0°C 46.6°F8.1°C 88% 13.0 mph W20.9 kmh W 15.0 mph24.1 kmh 29.77 in1008.1 mb 0.02 in0.5 mm 0.60 in15.2 mm 0.02 in0.5 mm
12:32 AM 49.9°F9.9°C 46.2°F7.9°C 87% 15.0 mph W24.1 kmh W 19.0 mph30.6 kmh 29.77 in1008.1 mb 0.01 in0.3 mm 0.00 in0.0 mm 0.01 in0.3 mm
12:31 AM 50.2°F10.1°C 46.5°F8.1°C 87% 19.0 mph W30.6 kmh W 23.0 mph37.0 kmh 29.77 in1008.1 mb 0.01 in0.3 mm 0.00 in0.0 mm 0.01 in0.3 mm
12:30 AM 50.3°F10.2°C 46.9°F8.3°C 88% 17.0 mph W27.4 kmh W 20.0 mph32.2 kmh 29.77 in1008.1 mb 0.01 in0.3 mm 0.00 in0.0 mm 0.01 in0.3 mm
12:29 AM 50.3°F10.2°C 46.6°F8.1°C 87% 17.0 mph W27.4 kmh W 21.0 mph33.8 kmh 29.77 in1008.1 mb 0.01 in0.3 mm 0.00 in0.0 mm 0.01 in0.3 mm
12:28 AM 50.3°F10.2°C 46.6°F8.1°C 87% 17.0 mph W27.4 kmh W 19.0 mph30.6 kmh 29.77 in1008.1 mb 0.01 in0.3 mm 0.00 in0.0 mm 0.01 in0.3 mm
12:27 AM 50.3°F10.2°C 46.6°F8.1°C 87% 18.0 mph W29.0 kmh W 23.0 mph37.0 kmh 29.77 in1008.1 mb 0.01 in0.3 mm 0.00 in0.0 mm 0.01 in0.3 mm
12:26 AM 50.2°F10.1°C 46.5°F8.1°C 87% 17.0 mph W27.4 kmh W 20.0 mph32.2 kmh 29.77 in1008.1 mb 0.01 in0.3 mm 0.00 in0.0 mm 0.01 in0.3 mm
12:25 AM 50.3°F10.2°C 46.6°F8.1°C 87% 20.0 mph WSW32.2 kmh WSW 24.0 mph38.6 kmh 29.77 in1008.1 mb 0.01 in0.3 mm 0.00 in0.0 mm 0.01 in0.3 mm
12:24 AM 50.3°F10.2°C 46.9°F8.3°C 88% 15.0 mph WSW24.1 kmh WSW 17.0 mph27.4 kmh 29.77 in1008.1 mb 0.01 in0.3 mm 0.00 in0.0 mm 0.01 in0.3 mm
12:23 AM 50.3°F10.2°C 46.9°F8.3°C 88% 13.0 mph WSW20.9 kmh WSW 16.0 mph25.7 kmh 29.77 in1008.1 mb 0.01 in0.3 mm 0.00 in0.0 mm 0.01 in0.3 mm
12:22 AM 50.2°F10.1°C 46.5°F8.1°C 87% 13.0 mph W20.9 kmh W 17.0 mph27.4 kmh 29.77 in1008.1 mb 0.01 in0.3 mm 0.00 in0.0 mm 0.01 in0.3 mm
12:21 AM 50.2°F10.1°C 46.5°F8.1°C 87% 12.0 mph WSW19.3 kmh WSW 15.0 mph24.1 kmh 29.77 in1008.1 mb 0.01 in0.3 mm 0.00 in0.0 mm 0.01 in0.3 mm
12:20 AM 50.2°F10.1°C 46.8°F8.2°C 88% 11.0 mph W17.7 kmh W 14.0 mph22.5 kmh 29.77 in1008.1 mb 0.01 in0.3 mm 0.00 in0.0 mm 0.01 in0.3 mm
12:19 AM 50.2°F10.1°C 46.8°F8.2°C 88% 11.0 mph W17.7 kmh W 13.0 mph20.9 kmh 29.77 in1008.1 mb 0.01 in0.3 mm 0.00 in0.0 mm 0.01 in0.3 mm
12:18 AM 50.2°F10.1°C 46.8°F8.2°C 88% 11.0 mph W17.7 kmh W 13.0 mph20.9 kmh 29.77 in1008.1 mb 0.01 in0.3 mm 0.00 in0.0 mm 0.01 in0.3 mm
12:17 AM 50.1°F10.1°C 46.7°F8.2°C 88% 12.0 mph W19.3 kmh W 16.0 mph25.7 kmh 29.77 in1008.1 mb 0.01 in0.3 mm 0.00 in0.0 mm 0.01 in0.3 mm
12:16 AM 50.0°F10.0°C 46.3°F7.9°C 87% 12.0 mph W19.3 kmh W 17.0 mph27.4 kmh 29.77 in1008.1 mb 0.01 in0.3 mm 0.00 in0.0 mm 0.01 in0.3 mm
12:15 AM 49.9°F9.9°C 46.2°F7.9°C 87% 11.0 mph W17.7 kmh W 13.0 mph20.9 kmh 29.77 in1008.1 mb 0.01 in0.3 mm 0.00 in0.0 mm 0.01 in0.3 mm
12:14 AM 49.9°F9.9°C 46.2°F7.9°C 87% 14.0 mph W22.5 kmh W 18.0 mph29.0 kmh 29.77 in1008.1 mb 0.01 in0.3 mm 0.00 in0.0 mm 0.01 in0.3 mm
12:13 AM 49.9°F9.9°C 46.2°F7.9°C 87% 12.0 mph W19.3 kmh W 16.0 mph25.7 kmh 29.77 in1008.1 mb 0.01 in0.3 mm 0.00 in0.0 mm 0.01 in0.3 mm
12:12 AM 49.9°F9.9°C 46.2°F7.9°C 87% 11.0 mph W17.7 kmh W 13.0 mph20.9 kmh 29.77 in1008.1 mb 0.01 in0.3 mm 0.00 in0.0 mm 0.01 in0.3 mm
12:11 AM 49.9°F9.9°C 46.2°F7.9°C 87% 10.0 mph W16.1 kmh W 12.0 mph19.3 kmh 29.77 in1008.1 mb 0.01 in0.3 mm 0.00 in0.0 mm 0.01 in0.3 mm
12:10 AM 49.8°F9.9°C 46.1°F7.8°C 87% 10.0 mph W16.1 kmh W 14.0 mph22.5 kmh 29.77 in1008.1 mb 0.01 in0.3 mm 0.00 in0.0 mm 0.01 in0.3 mm
12:09 AM 49.8°F9.9°C 46.1°F7.8°C 87% 14.0 mph W22.5 kmh W 17.0 mph27.4 kmh 29.77 in1008.1 mb 0.01 in0.3 mm 0.00 in0.0 mm 0.01 in0.3 mm
12:08 AM 49.8°F9.9°C 46.1°F7.8°C 87% 9.0 mph W14.5 kmh W 11.0 mph17.7 kmh 29.77 in1008.1 mb 0.01 in0.3 mm 0.00 in0.0 mm 0.01 in0.3 mm
12:07 AM 49.8°F9.9°C 46.1°F7.8°C 87% 11.0 mph W17.7 kmh W 14.0 mph22.5 kmh 29.77 in1008.1 mb 0.01 in0.3 mm 0.00 in0.0 mm 0.01 in0.3 mm
12:06 AM 49.7°F9.8°C 46.0°F7.8°C 87% 14.0 mph W22.5 kmh W 16.0 mph25.7 kmh 29.77 in1008.1 mb 0.01 in0.3 mm 0.00 in0.0 mm 0.01 in0.3 mm
12:05 AM 49.7°F9.8°C 46.0°F7.8°C 87% 12.0 mph W19.3 kmh W 15.0 mph24.1 kmh 29.77 in1008.1 mb 0.01 in0.3 mm 0.00 in0.0 mm 0.01 in0.3 mm
12:04 AM 49.6°F9.8°C 45.9°F7.7°C 87% 14.0 mph WNW22.5 kmh WNW 20.0 mph32.2 kmh 29.77 in1008.1 mb 0.01 in0.3 mm 0.00 in0.0 mm 0.01 in0.3 mm
12:03 AM 49.6°F9.8°C 45.9°F7.7°C 87% 15.0 mph W24.1 kmh W 19.0 mph30.6 kmh 29.77 in1008.1 mb 0.01 in0.3 mm 0.00 in0.0 mm 0.01 in0.3 mm
12:02 AM 49.6°F9.8°C 45.9°F7.7°C 87% 14.0 mph WNW22.5 kmh WNW 16.0 mph25.7 kmh 29.77 in1008.1 mb 0.01 in0.3 mm 0.00 in0.0 mm 0.01 in0.3 mm
12:01 AM 49.6°F9.8°C 45.6°F7.6°C 86% 13.0 mph W20.9 kmh W 17.0 mph27.4 kmh 29.78 in1008.5 mb 0.01 in0.3 mm 0.00 in0.0 mm 0.01 in0.3 mm
12:00 AM 49.6°F9.8°C 45.6°F7.6°C 86% 15.0 mph WNW24.1 kmh WNW 18.0 mph29.0 kmh 29.78 in1008.5 mb 0.01 in0.3 mm 0.00 in0.0 mm 0.01 in0.3 mm